createdAt,value
2023-01-04T00:01:17.828Z,39.33
2023-01-04T00:03:44.936Z,45.85
2023-01-04T00:06:16.290Z,43.28
2023-01-04T00:08:43.664Z,45.03
2023-01-04T00:11:19.406Z,39.63
2023-01-04T00:13:50.013Z,41.60
2023-01-04T00:16:19.679Z,40.20
2023-01-04T00:18:47.268Z,37.20
2023-01-04T00:21:19.403Z,37.88
2023-01-04T00:23:48.241Z,42.97
2023-01-04T00:26:21.611Z,38.22
2023-01-04T00:31:22.280Z,38.03
2023-01-04T00:33:49.496Z,39.25
2023-01-04T00:36:16.934Z,38.70
2023-01-04T00:38:44.061Z,38.70
2023-01-04T00:41:34.460Z,40.30
2023-01-04T00:43:59.936Z,41.22
2023-01-04T00:46:26.767Z,42.17
2023-01-04T00:48:58.177Z,38.17
2023-01-04T00:51:28.023Z,40.00
2023-01-04T00:53:54.785Z,43.88
2023-01-04T00:56:21.630Z,42.28
2023-01-04T00:58:48.366Z,38.33
2023-01-04T01:01:15.398Z,43.28
2023-01-04T01:03:44.634Z,38.20
2023-01-04T01:06:12.556Z,39.95
2023-01-04T01:08:39.798Z,37.85
2023-01-04T01:11:11.072Z,40.17
2023-01-04T01:13:38.713Z,35.72
2023-01-04T01:16:07.537Z,35.75
2023-01-04T01:18:35.474Z,39.47
2023-01-04T01:21:09.815Z,37.90
2023-01-04T01:23:37.015Z,31.92
2023-01-04T01:26:06.049Z,35.00
2023-01-04T01:28:34.047Z,34.33
2023-01-04T01:31:08.703Z,34.25
2023-01-04T01:33:40.532Z,35.65
2023-01-04T01:36:09.173Z,31.67
2023-01-04T01:38:36.755Z,33.30
2023-01-04T01:41:03.990Z,32.70
2023-01-04T01:44:06.944Z,29.83
2023-01-04T01:46:46.994Z,33.70
2023-01-04T01:49:37.598Z,33.25
2023-01-04T01:52:08.043Z,33.90
2023-01-04T01:54:42.821Z,32.58
2023-01-04T01:57:13.777Z,30.30
2023-01-04T01:59:42.919Z,29.50
2023-01-04T02:02:10.899Z,27.63
2023-01-04T02:04:43.231Z,30.25
2023-01-04T02:07:13.276Z,30.00
2023-01-04T02:09:40.831Z,28.45
2023-01-04T02:12:12.695Z,30.35
2023-01-04T02:14:42.369Z,29.20
2023-01-04T02:17:45.127Z,29.98
2023-01-04T02:20:27.489Z,28.50
2023-01-04T02:23:00.088Z,28.27
2023-01-04T02:25:45.087Z,26.45
2023-01-04T02:28:36.247Z,25.92
2023-01-04T02:31:30.110Z,25.88
2023-01-04T02:33:56.951Z,23.63
2023-01-04T02:36:23.620Z,25.98
2023-01-04T02:39:29.255Z,26.08
2023-01-04T02:42:54.366Z,24.35
2023-01-04T02:45:25.189Z,22.40
2023-01-04T02:48:11.337Z,25.20
2023-01-04T02:50:54.953Z,24.30
2023-01-04T02:55:50.402Z,24.20
2023-01-04T02:58:56.651Z,25.27
2023-01-04T03:02:06.478Z,24.42
2023-01-04T03:05:36.407Z,21.67
2023-01-04T03:08:23.338Z,25.83
2023-01-04T03:10:50.111Z,23.02
2023-01-04T03:13:25.735Z,25.83
2023-01-04T03:15:55.536Z,24.13
2023-01-04T03:18:27.798Z,24.83
2023-01-04T03:20:58.748Z,23.83
2023-01-04T03:23:48.983Z,25.17
2023-01-04T03:26:46.727Z,20.63
2023-01-04T03:29:55.759Z,23.20
2023-01-04T03:33:13.749Z,19.85
2023-01-04T03:35:56.054Z,24.77
2023-01-04T03:39:06.995Z,22.17
2023-01-04T03:42:04.341Z,21.85
2023-01-04T03:44:52.643Z,24.60
2023-01-04T03:48:17.863Z,21.38
2023-01-04T03:50:56.590Z,22.83
2023-01-04T03:53:24.404Z,25.60
2023-01-04T03:55:52.758Z,21.25
2023-01-04T03:58:20.494Z,21.73
2023-01-04T04:00:48.421Z,23.02
2023-01-04T04:03:15.330Z,20.50
2023-01-04T04:06:02.799Z,21.25
2023-01-04T04:08:29.918Z,19.90
2023-01-04T04:11:22.255Z,20.58
2023-01-04T04:13:50.499Z,19.88
2023-01-04T04:16:18.265Z,20.25
2023-01-04T04:18:45.179Z,20.02
2023-01-04T04:21:11.933Z,22.17
2023-01-04T04:23:38.639Z,22.73
2023-01-04T04:26:05.574Z,19.65
2023-01-04T04:28:32.768Z,19.67
2023-01-04T04:30:59.570Z,19.45
2023-01-04T04:33:26.429Z,20.08
2023-01-04T04:35:55.090Z,21.15
2023-01-04T04:38:23.031Z,20.38
2023-01-04T04:41:08.373Z,22.40
2023-01-04T04:43:35.659Z,18.92
2023-01-04T04:46:02.978Z,24.95
2023-01-04T04:48:29.865Z,22.25
2023-01-04T04:50:56.692Z,23.17
2023-01-04T04:53:23.669Z,23.00
2023-01-04T04:55:54.243Z,23.55
2023-01-04T04:58:21.500Z,23.13
2023-01-04T05:00:48.308Z,24.95
2023-01-04T05:03:15.217Z,24.90
2023-01-04T05:05:42.409Z,29.17
2023-01-04T05:08:09.387Z,25.83
2023-01-04T05:10:36.839Z,23.20
2023-01-04T05:13:06.017Z,27.63
2023-01-04T05:15:36.411Z,26.15
2023-01-04T05:18:03.272Z,26.13
2023-01-04T05:20:29.949Z,24.98
2023-01-04T05:22:56.683Z,27.40
2023-01-04T05:25:23.965Z,24.77
2023-01-04T05:27:50.892Z,28.88
2023-01-04T05:30:37.035Z,23.35
2023-01-04T05:33:04.385Z,24.17
2023-01-04T05:35:31.157Z,24.10
2023-01-04T05:37:58.136Z,28.40
2023-01-04T05:40:25.000Z,25.30
2023-01-04T05:42:52.524Z,25.70
2023-01-04T05:45:21.144Z,27.33
2023-01-04T05:47:52.551Z,25.77
2023-01-04T05:50:21.381Z,24.35
2023-01-04T05:52:49.011Z,25.15
2023-01-04T05:55:16.014Z,25.30
2023-01-04T05:57:43.327Z,26.08
2023-01-04T06:00:11.540Z,25.88
2023-01-04T06:02:42.247Z,24.65
2023-01-04T06:05:10.647Z,25.25
2023-01-04T06:07:38.627Z,27.30
2023-01-04T06:10:08.099Z,30.40
2023-01-04T06:12:34.965Z,28.20
2023-01-04T06:15:02.053Z,26.65
2023-01-04T06:17:30.315Z,26.50
2023-01-04T06:19:57.100Z,25.35
2023-01-04T06:22:24.020Z,25.42
2023-01-04T06:24:50.760Z,25.88
2023-01-04T06:27:17.553Z,23.23
2023-01-04T06:29:44.408Z,24.85
2023-01-04T06:32:11.332Z,23.10
2023-01-04T06:34:38.091Z,22.85
2023-01-04T06:37:06.051Z,23.20
2023-01-04T06:39:32.956Z,26.10
2023-01-04T06:42:06.297Z,25.17
2023-01-04T06:44:33.240Z,24.40
2023-01-04T06:46:59.997Z,30.25
2023-01-04T06:49:26.732Z,24.08
2023-01-04T06:51:53.468Z,23.98
2023-01-04T06:54:20.231Z,22.73
2023-01-04T06:56:46.991Z,22.27
2023-01-04T06:59:13.762Z,22.25
2023-01-04T07:01:40.645Z,25.83
2023-01-04T07:04:08.192Z,23.38
2023-01-04T07:06:34.986Z,21.65
2023-01-04T07:09:01.765Z,20.08
2023-01-04T07:11:28.579Z,24.30
2023-01-04T07:13:55.415Z,18.00
2023-01-04T07:16:22.292Z,17.83
2023-01-04T07:18:49.106Z,14.77
2023-01-04T07:21:15.944Z,17.38
2023-01-04T07:23:42.782Z,15.57
2023-01-04T07:26:09.597Z,14.88
2023-01-04T07:28:54.659Z,16.83
2023-01-04T07:31:21.605Z,17.58
2023-01-04T07:33:50.879Z,17.55
2023-01-04T07:36:17.744Z,17.52
2023-01-04T07:38:44.661Z,16.92
2023-01-04T07:41:11.494Z,18.73
2023-01-04T07:43:38.247Z,17.75
2023-01-04T07:46:05.021Z,16.65
2023-01-04T07:48:31.740Z,17.77
2023-01-04T07:50:58.514Z,20.45
2023-01-04T07:53:25.223Z,18.13
2023-01-04T07:55:57.143Z,19.02
2023-01-04T07:58:24.192Z,18.60
2023-01-04T08:00:51.311Z,19.35
2023-01-04T08:03:18.124Z,19.48
2023-01-04T08:05:45.017Z,17.95
2023-01-04T08:08:11.906Z,19.42
2023-01-04T08:10:38.840Z,24.02
2023-01-04T08:13:05.699Z,20.38
2023-01-04T08:15:33.444Z,20.25
2023-01-04T08:18:00.591Z,21.67
2023-01-04T08:20:27.521Z,19.60
2023-01-04T08:22:54.551Z,34.28
2023-01-04T08:25:21.423Z,20.88
2023-01-04T08:27:48.748Z,20.70
2023-01-04T08:30:15.577Z,20.00
2023-01-04T08:32:42.375Z,17.65
2023-01-04T08:35:09.451Z,22.65
2023-01-04T08:37:36.256Z,22.75
2023-01-04T08:40:03.472Z,19.80
2023-01-04T08:42:31.732Z,22.30
2023-01-04T08:45:01.387Z,20.48
2023-01-04T08:47:32.772Z,22.40
2023-01-04T08:50:03.460Z,23.17
2023-01-04T08:52:34.734Z,20.98
2023-01-04T08:55:04.367Z,27.42
2023-01-04T08:57:35.305Z,28.13
2023-01-04T09:00:02.416Z,28.17
2023-01-04T09:02:30.690Z,34.72
2023-01-04T09:05:03.957Z,36.78
2023-01-04T09:07:31.895Z,32.22
2023-01-04T09:10:00.772Z,33.15
2023-01-04T09:12:27.680Z,31.80
2023-01-04T09:14:55.029Z,35.00
2023-01-04T09:17:22.972Z,37.28
2023-01-04T09:19:49.819Z,33.03
2023-01-04T09:22:16.723Z,32.45
2023-01-04T09:24:43.540Z,35.88
2023-01-04T09:27:10.253Z,34.50
2023-01-04T09:29:37.011Z,32.53
2023-01-04T09:32:03.891Z,31.75
2023-01-04T09:34:30.790Z,33.53
2023-01-04T09:36:57.701Z,32.42
2023-01-04T09:39:26.334Z,30.58
2023-01-04T09:42:06.719Z,31.98
2023-01-04T09:47:57.368Z,29.05
2023-01-04T09:50:37.892Z,30.00
2023-01-04T09:53:45.779Z,28.20
2023-01-04T09:56:26.601Z,29.08
2023-01-04T09:58:54.627Z,26.08
2023-01-04T10:01:25.590Z,28.55
2023-01-04T10:04:11.108Z,27.40
2023-01-04T10:06:38.302Z,25.02
2023-01-04T10:09:11.883Z,26.30
2023-01-04T10:12:08.929Z,25.90
2023-01-04T10:15:08.511Z,24.73
2023-01-04T10:21:34.082Z,21.40
2023-01-04T10:24:45.623Z,21.75
2023-01-04T10:27:43.304Z,23.98
2023-01-04T10:30:25.422Z,23.85
2023-01-04T10:33:07.626Z,18.02
2023-01-04T10:35:36.802Z,21.02
2023-01-04T10:38:10.410Z,19.65
2023-01-04T10:40:40.223Z,20.15
2023-01-04T10:44:09.516Z,21.08
2023-01-04T10:46:40.886Z,19.90
2023-01-04T10:49:35.388Z,20.45
2023-01-04T10:52:16.955Z,21.05
2023-01-04T10:54:57.574Z,20.60
2023-01-04T10:57:30.839Z,21.63
2023-01-04T11:02:38.229Z,32.58
2023-01-04T11:05:33.390Z,35.30
2023-01-04T11:08:16.122Z,38.28
2023-01-04T11:11:00.443Z,34.33
2023-01-04T11:13:28.323Z,34.60
2023-01-04T11:15:56.373Z,33.65
2023-01-04T11:18:23.631Z,35.95
2023-01-04T11:20:51.273Z,31.73
2023-01-04T11:23:20.352Z,32.83
2023-01-04T11:26:00.491Z,33.20
2023-01-04T11:28:54.972Z,36.35
2023-01-04T11:31:45.605Z,35.67
2023-01-04T11:34:12.813Z,35.42
2023-01-04T11:36:47.533Z,37.90
2023-01-04T11:39:21.562Z,40.22
2023-01-04T11:42:06.118Z,39.25
2023-01-04T11:44:35.283Z,41.40
2023-01-04T11:47:15.632Z,47.15
2023-01-04T11:49:42.564Z,47.10
2023-01-04T11:52:33.418Z,49.25
2023-01-04T11:58:13.139Z,48.97
2023-01-04T12:00:56.982Z,48.70
2023-01-04T12:03:40.198Z,45.50
2023-01-04T12:06:25.046Z,45.33
2023-01-04T12:08:51.932Z,42.30
2023-01-04T12:11:32.025Z,52.20
2023-01-04T12:14:00.237Z,48.55
2023-01-04T12:16:47.415Z,47.80
2023-01-04T12:19:16.963Z,42.40
2023-01-04T12:21:47.441Z,47.00
2023-01-04T12:24:22.338Z,45.95
2023-01-04T12:26:50.573Z,44.80
2023-01-04T12:29:23.335Z,47.92
2023-01-04T12:32:05.534Z,51.50
2023-01-04T12:34:34.239Z,54.13
2023-01-04T12:37:05.594Z,42.05
2023-01-04T12:39:45.036Z,39.88
2023-01-04T12:42:15.944Z,46.47
2023-01-04T12:44:51.916Z,42.17
2023-01-04T12:47:45.015Z,42.78
2023-01-04T12:50:26.556Z,48.17
2023-01-04T12:53:28.202Z,48.92
2023-01-04T12:55:55.443Z,48.90
2023-01-04T12:59:06.900Z,55.38
2023-01-04T13:01:27.536Z,54.25
2023-01-04T13:04:05.194Z,48.22
2023-01-04T13:06:41.959Z,53.42
2023-01-04T13:09:23.966Z,57.97
2023-01-04T13:11:56.862Z,58.50
2023-01-04T13:14:48.295Z,54.67
2023-01-04T13:17:23.894Z,59.67
2023-01-04T13:19:51.047Z,85.43
2023-01-04T13:22:34.063Z,79.30
2023-01-04T13:25:03.009Z,82.38
2023-01-04T13:27:29.870Z,91.32
2023-01-04T13:29:56.689Z,95.07
2023-01-04T13:32:46.950Z,96.03
2023-01-04T13:35:19.657Z,121.15
2023-01-04T13:37:49.603Z,120.97
2023-01-04T13:40:35.957Z,124.15
2023-01-04T13:43:15.126Z,140.32
2023-01-04T13:46:07.079Z,162.05
2023-01-04T13:48:39.172Z,133.63
2023-01-04T13:51:36.271Z,159.70
2023-01-04T13:54:07.017Z,141.63
2023-01-04T13:56:35.124Z,117.82
2023-01-04T13:59:04.776Z,135.32
2023-01-04T14:01:42.632Z,111.97
2023-01-04T14:04:21.268Z,137.43
2023-01-04T14:06:52.989Z,196.38
2023-01-04T14:09:24.230Z,174.55
2023-01-04T14:12:07.685Z,184.10
2023-01-04T14:14:38.076Z,133.38
2023-01-04T14:17:18.550Z,154.80
2023-01-04T14:19:58.473Z,157.75
2023-01-04T14:22:42.416Z,146.05
2023-01-04T14:25:40.824Z,147.40
2023-01-04T14:28:24.582Z,128.25
2023-01-04T14:31:00.422Z,180.95
2023-01-04T14:33:36.768Z,173.25
2023-01-04T14:36:07.774Z,153.90
2023-01-04T14:38:57.228Z,196.05
2023-01-04T14:41:33.451Z,153.77
2023-01-04T14:44:00.229Z,193.63
2023-01-04T14:46:28.750Z,249.60
2023-01-04T14:48:55.985Z,240.82
2023-01-04T14:51:30.563Z,167.15
2023-01-04T14:53:57.255Z,168.90
2023-01-04T14:56:26.645Z,126.50
2023-01-04T14:58:53.546Z,142.82
2023-01-04T15:01:20.369Z,261.38
2023-01-04T15:03:47.272Z,164.93
2023-01-04T15:06:14.249Z,318.65
2023-01-04T15:08:41.015Z,349.17
2023-01-04T15:11:07.849Z,379.67
2023-01-04T15:13:39.991Z,376.10
2023-01-04T15:16:07.777Z,255.43
2023-01-04T15:18:34.655Z,263.27
2023-01-04T15:21:02.377Z,188.48
2023-01-04T15:23:29.185Z,132.75
2023-01-04T15:25:57.627Z,324.48
2023-01-04T15:28:26.429Z,288.17
2023-01-04T15:30:53.346Z,238.52
2023-01-04T15:33:20.208Z,320.70
2023-01-04T15:35:47.677Z,407.95
2023-01-04T15:38:18.388Z,194.13
2023-01-04T15:40:45.468Z,255.98
2023-01-04T15:43:12.187Z,163.30
2023-01-04T15:45:39.743Z,201.20
2023-01-04T15:48:08.389Z,180.15
2023-01-04T15:50:37.398Z,189.13
2023-01-04T15:53:04.982Z,148.18
2023-01-04T15:55:36.400Z,150.32
2023-01-04T15:58:06.461Z,145.10
2023-01-04T16:00:33.218Z,163.07
2023-01-04T16:03:00.150Z,117.07
2023-01-04T16:05:26.983Z,134.25
2023-01-04T16:07:53.711Z,123.90
2023-01-04T16:10:20.564Z,107.35
2023-01-04T16:12:53.087Z,97.32
2023-01-04T16:15:24.221Z,96.90
2023-01-04T16:17:51.130Z,96.70
2023-01-04T16:20:19.272Z,92.80
2023-01-04T16:22:46.575Z,100.88
2023-01-04T16:25:14.148Z,90.30
2023-01-04T16:27:41.419Z,94.95
2023-01-04T16:30:13.653Z,94.07
2023-01-04T16:32:45.512Z,90.15
2023-01-04T16:35:12.819Z,104.70
2023-01-04T16:37:43.393Z,113.75
2023-01-04T16:40:11.011Z,116.10
2023-01-04T16:42:38.844Z,124.97
2023-01-04T16:45:06.640Z,121.47
2023-01-04T16:47:40.471Z,108.35
2023-01-04T16:50:07.486Z,116.50
2023-01-04T16:52:34.504Z,122.97
2023-01-04T16:55:01.837Z,117.97
2023-01-04T16:57:30.464Z,107.35
2023-01-04T16:59:57.329Z,109.95
2023-01-04T17:02:24.809Z,108.07
2023-01-04T17:04:57.038Z,100.05
2023-01-04T17:07:25.380Z,107.03
2023-01-04T17:09:52.196Z,104.40
2023-01-04T17:17:53.503Z,94.95
2023-01-04T17:20:20.261Z,102.95
2023-01-04T17:22:47.043Z,99.75
2023-01-04T17:25:15.175Z,107.47
2023-01-04T17:27:41.940Z,104.72
2023-01-04T17:30:09.546Z,95.30
2023-01-04T17:32:37.556Z,97.63
2023-01-04T17:35:04.562Z,95.65
2023-01-04T17:37:31.546Z,96.00
2023-01-04T17:39:58.295Z,96.65
2023-01-04T17:42:25.084Z,115.13
2023-01-04T17:44:52.146Z,96.97
2023-01-04T17:47:19.472Z,103.57
2023-01-04T17:49:46.340Z,110.15
2023-01-04T17:52:20.106Z,94.78
2023-01-04T17:54:49.106Z,103.82
2023-01-04T17:57:15.924Z,100.68
2023-01-04T17:59:45.649Z,102.00
2023-01-04T18:02:12.597Z,100.20
2023-01-04T18:04:39.449Z,101.68
2023-01-04T18:07:06.362Z,111.07
2023-01-04T18:09:33.232Z,98.65
2023-01-04T18:12:00.114Z,107.13
2023-01-04T18:14:27.867Z,100.60
2023-01-04T18:16:58.773Z,97.93
2023-01-04T18:19:28.430Z,102.35
2023-01-04T18:21:55.994Z,100.63
2023-01-04T18:24:35.845Z,93.03
2023-01-04T18:29:51.278Z,98.15
2023-01-04T18:32:18.239Z,100.13
2023-01-04T18:34:45.053Z,94.28
2023-01-04T18:37:12.316Z,99.75
2023-01-04T18:39:39.246Z,106.53
2023-01-04T18:42:07.284Z,105.82
2023-01-04T18:44:36.059Z,116.03
2023-01-04T18:47:04.822Z,116.97
2023-01-04T18:49:32.088Z,118.90
2023-01-04T18:51:58.886Z,124.65
2023-01-04T18:54:25.700Z,121.00
2023-01-04T18:56:58.704Z,116.40
2023-01-04T18:59:28.317Z,123.82
2023-01-04T19:02:00.898Z,132.75
2023-01-04T19:04:35.149Z,122.35
2023-01-04T19:07:02.489Z,119.38
2023-01-04T19:09:30.789Z,121.55
2023-01-04T19:11:57.574Z,118.53
2023-01-04T19:14:24.304Z,118.97
2023-01-04T19:16:53.188Z,117.78
2023-01-04T19:19:20.372Z,120.10
2023-01-04T19:21:47.159Z,117.82
2023-01-04T19:24:13.910Z,112.90
2023-01-04T19:26:40.805Z,113.45
2023-01-04T19:29:08.662Z,122.25
2023-01-04T19:31:35.797Z,107.55
2023-01-04T19:34:02.627Z,105.97
2023-01-04T19:36:30.498Z,99.80
2023-01-04T19:38:57.706Z,84.07
2023-01-04T19:41:33.386Z,74.53
2023-01-04T19:44:06.592Z,91.65
2023-01-04T19:46:33.779Z,63.10
2023-01-04T19:49:03.618Z,56.17
2023-01-04T19:51:30.917Z,75.60
2023-01-04T19:53:57.669Z,54.60
2023-01-04T19:56:24.520Z,54.58
2023-01-04T19:58:51.314Z,45.28
2023-01-04T20:01:20.133Z,37.08
2023-01-04T20:03:47.877Z,36.70
2023-01-04T20:06:15.615Z,38.03
2023-01-04T20:08:43.138Z,37.50
2023-01-04T20:11:10.575Z,33.80
2023-01-04T20:13:38.820Z,36.42
2023-01-04T20:16:06.523Z,34.80
2023-01-04T20:18:34.371Z,34.63
2023-01-04T20:21:01.375Z,32.80
2023-01-04T20:23:28.220Z,34.65
2023-01-04T20:25:55.732Z,31.25
2023-01-04T20:28:24.360Z,31.58
2023-01-04T20:31:02.356Z,33.08
2023-01-04T20:33:30.411Z,31.17
2023-01-04T20:35:57.576Z,29.88
2023-01-04T20:38:24.484Z,30.83
2023-01-04T20:40:51.277Z,26.27
2023-01-04T20:43:33.147Z,27.25
2023-01-04T20:46:01.181Z,26.45
2023-01-04T20:48:28.739Z,23.13
2023-01-04T20:50:56.076Z,26.25
2023-01-04T20:53:23.234Z,24.92
2023-01-04T20:55:50.222Z,27.17
2023-01-04T20:58:17.626Z,22.67
2023-01-04T21:00:46.439Z,22.63
2023-01-04T21:03:13.604Z,23.05
2023-01-04T21:05:43.487Z,22.85
2023-01-04T21:08:11.793Z,21.83
2023-01-04T21:10:42.155Z,20.25
2023-01-04T21:13:10.597Z,25.45
2023-01-04T21:15:39.127Z,21.30
2023-01-04T21:18:07.532Z,23.17
2023-01-04T21:20:38.618Z,18.70
2023-01-04T21:23:05.350Z,16.60
2023-01-04T21:25:32.087Z,18.15
2023-01-04T21:28:00.762Z,19.20
2023-01-04T21:30:27.822Z,16.95
2023-01-04T21:32:58.529Z,19.17
2023-01-04T21:35:29.003Z,19.63
2023-01-04T21:37:55.790Z,15.50
2023-01-04T21:40:22.604Z,13.95
2023-01-04T21:42:49.323Z,15.73
2023-01-04T21:45:16.193Z,15.77
2023-01-04T21:47:42.993Z,15.70
2023-01-04T21:50:16.540Z,17.27
2023-01-04T21:52:43.953Z,15.98
2023-01-04T21:55:11.045Z,14.15
2023-01-04T21:57:39.176Z,14.27
2023-01-04T22:00:08.475Z,14.98
2023-01-04T22:02:35.755Z,14.43
2023-01-04T22:05:02.863Z,15.32
2023-01-04T22:07:29.963Z,12.65
2023-01-04T22:09:57.843Z,14.00
2023-01-04T22:12:24.766Z,14.55
2023-01-04T22:14:51.691Z,13.63
2023-01-04T22:17:18.507Z,15.75
2023-01-04T22:19:45.477Z,13.55
2023-01-04T22:22:12.389Z,13.20
2023-01-04T22:24:39.298Z,15.82
2023-01-04T22:27:06.100Z,13.32
2023-01-04T22:29:32.922Z,15.02
2023-01-04T22:32:00.169Z,13.82
2023-01-04T22:34:28.123Z,15.93
2023-01-04T22:36:55.100Z,13.85
2023-01-04T22:39:21.937Z,13.15
2023-01-04T22:41:48.627Z,14.82
2023-01-04T22:44:15.531Z,15.52
2023-01-04T22:46:42.420Z,13.75
2023-01-04T22:49:10.418Z,15.63
2023-01-04T22:51:37.150Z,13.35
2023-01-04T22:54:05.805Z,14.48
2023-01-04T22:56:32.754Z,14.52
2023-01-04T22:58:59.601Z,16.10
2023-01-04T23:01:30.015Z,16.05
2023-01-04T23:03:58.527Z,15.98
2023-01-04T23:06:27.076Z,11.55
2023-01-04T23:09:03.115Z,13.15
2023-01-04T23:11:31.299Z,14.15
2023-01-04T23:13:58.668Z,12.70
2023-01-04T23:16:32.036Z,14.38
2023-01-04T23:19:00.250Z,17.77
2023-01-04T23:21:27.088Z,14.15
2023-01-04T23:23:53.844Z,16.45
2023-01-04T23:26:22.967Z,11.88
2023-01-04T23:28:50.730Z,10.82
2023-01-04T23:31:20.597Z,14.25
2023-01-04T23:33:47.842Z,13.25
2023-01-04T23:36:20.314Z,11.20
2023-01-04T23:38:51.814Z,14.43
2023-01-04T23:41:19.355Z,15.55
2023-01-04T23:43:46.493Z,11.25
2023-01-04T23:46:16.220Z,13.90
2023-01-04T23:48:43.616Z,11.73
2023-01-04T23:51:12.158Z,12.52
2023-01-04T23:53:38.999Z,11.70
2023-01-04T23:56:08.298Z,12.85
2023-01-04T23:58:35.398Z,12.23
